createdAt,value
2022-11-10T00:01:12.853Z,99185.23
2022-11-10T00:06:37.549Z,99189.27
2022-11-10T00:11:59.259Z,99195.90
2022-11-10T00:17:21.375Z,99197.09
2022-11-10T00:22:42.914Z,99201.45
2022-11-10T00:28:04.722Z,99207.86
2022-11-10T00:33:26.189Z,99208.85
2022-11-10T00:38:50.665Z,99206.36
2022-11-10T00:44:12.084Z,99208.64
2022-11-10T00:49:33.769Z,99210.66
2022-11-10T00:54:55.287Z,99208.68
2022-11-10T01:00:17.151Z,99213.83
2022-11-10T01:05:38.651Z,99215.11
2022-11-10T01:11:13.429Z,99214.78
2022-11-10T01:16:34.865Z,99221.89
2022-11-10T01:21:56.046Z,99216.67
2022-11-10T01:27:18.281Z,99215.73
2022-11-10T01:32:39.614Z,99211.84
2022-11-10T01:38:01.127Z,99212.07
2022-11-10T01:43:23.878Z,99227.42
2022-11-10T01:48:57.771Z,99235.56
2022-11-10T01:54:23.973Z,99228.23
2022-11-10T01:59:48.910Z,99229.98
2022-11-10T02:05:10.550Z,99237.85
2022-11-10T02:10:40.286Z,99242.88
2022-11-10T02:16:02.253Z,99243.89
2022-11-10T02:21:24.300Z,99243.70
2022-11-10T02:26:56.012Z,99245.30
2022-11-10T02:32:17.420Z,99252.40
2022-11-10T02:37:39.312Z,99257.95
2022-11-10T02:43:01.086Z,99266.42
2022-11-10T02:48:22.695Z,99269.16
2022-11-10T02:53:44.293Z,99266.25
2022-11-10T02:59:06.218Z,99261.55
2022-11-10T03:04:27.513Z,99261.20
2022-11-10T03:09:48.886Z,99268.70
2022-11-10T03:15:14.916Z,99270.97
2022-11-10T03:20:36.712Z,99272.62
2022-11-10T03:25:58.358Z,99278.46
2022-11-10T03:31:20.225Z,99284.40
2022-11-10T03:36:41.683Z,99282.63
2022-11-10T03:42:03.595Z,99281.17
2022-11-10T03:47:25.402Z,99286.24
2022-11-10T03:52:47.366Z,99291.86
2022-11-10T03:58:09.092Z,99293.73
2022-11-10T04:03:30.149Z,99288.73
2022-11-10T04:09:00.485Z,99298.09
2022-11-10T04:14:41.062Z,99300.30
2022-11-10T04:20:03.980Z,99303.50
2022-11-10T04:25:25.612Z,99306.41
2022-11-10T04:30:46.792Z,99309.23
2022-11-10T04:36:10.256Z,99309.30
2022-11-10T04:41:32.549Z,99314.12
2022-11-10T04:46:54.377Z,99317.20
2022-11-10T04:52:16.271Z,99316.27
2022-11-10T04:57:38.104Z,99312.98
2022-11-10T05:03:00.989Z,99322.95
2022-11-10T05:08:22.535Z,99331.88
2022-11-10T05:13:45.119Z,99347.15
2022-11-10T05:19:06.927Z,99353.08
2022-11-10T05:24:28.544Z,99356.79
2022-11-10T05:29:49.947Z,99351.58
2022-11-10T05:35:11.657Z,99362.07
2022-11-10T05:40:33.977Z,99377.60
2022-11-10T05:45:55.490Z,99377.63
2022-11-10T05:51:17.100Z,99383.95
2022-11-10T05:56:38.723Z,99389.23
2022-11-10T06:02:00.199Z,99396.99
2022-11-10T06:07:21.974Z,99411.75
2022-11-10T06:12:43.516Z,99421.20
2022-11-10T06:18:05.168Z,99429.10
2022-11-10T06:23:27.141Z,99440.04
2022-11-10T06:28:48.637Z,99451.63
2022-11-10T06:34:10.281Z,99458.94
2022-11-10T06:39:31.811Z,99469.73
2022-11-10T06:44:53.486Z,99481.23
2022-11-10T06:50:15.693Z,99494.52
2022-11-10T06:55:37.230Z,99500.20
2022-11-10T07:01:02.216Z,99503.54
2022-11-10T07:06:23.786Z,99507.84
2022-11-10T07:11:45.066Z,99516.80
2022-11-10T07:17:07.888Z,99521.19
2022-11-10T07:22:29.532Z,99524.15
2022-11-10T07:27:59.478Z,99530.89
2022-11-10T07:33:21.752Z,99539.86
2022-11-10T07:38:43.252Z,99540.19
2022-11-10T07:44:04.964Z,99548.84
2022-11-10T07:49:26.495Z,99554.79
2022-11-10T07:54:47.859Z,99561.19
2022-11-10T08:00:12.696Z,99557.55
2022-11-10T08:05:35.048Z,99569.20
2022-11-10T08:10:57.743Z,99584.65
2022-11-10T08:16:19.471Z,99586.11
2022-11-10T08:21:40.742Z,99593.30
2022-11-10T08:27:02.275Z,99598.11
2022-11-10T08:32:23.438Z,99603.45
2022-11-10T08:37:44.923Z,99612.78
2022-11-10T08:43:07.745Z,99619.09
2022-11-10T08:48:29.181Z,99626.14
2022-11-10T08:53:50.860Z,99631.17
2022-11-10T08:59:13.062Z,99638.73
2022-11-10T09:04:34.762Z,99643.74
2022-11-10T09:10:06.762Z,99669.15
2022-11-10T09:15:30.063Z,99677.91
2022-11-10T09:20:51.480Z,99682.48
2022-11-10T09:26:12.890Z,99688.02
2022-11-10T09:31:34.512Z,99691.34
2022-11-10T09:36:56.136Z,99690.70
2022-11-10T09:42:39.829Z,99690.64
2022-11-10T09:48:15.730Z,99691.86
2022-11-10T09:53:44.588Z,99688.34
2022-11-10T09:59:34.107Z,99693.23
2022-11-10T10:05:14.403Z,99695.20
2022-11-10T10:10:50.228Z,99707.25
2022-11-10T10:16:28.170Z,99714.69
2022-11-10T10:22:25.931Z,99720.73
2022-11-10T10:27:58.232Z,99730.86
2022-11-10T10:33:22.282Z,99739.85
2022-11-10T10:38:46.491Z,99738.84
2022-11-10T10:44:17.600Z,99742.54
2022-11-10T10:49:39.058Z,99748.63
2022-11-10T10:55:02.332Z,99747.55
2022-11-10T11:00:24.326Z,99746.64
2022-11-10T11:06:01.279Z,99747.02
2022-11-10T11:11:35.251Z,99753.80
2022-11-10T11:17:12.912Z,99755.84
2022-11-10T11:23:12.230Z,99763.54
2022-11-10T11:29:01.632Z,99765.35
2022-11-10T11:34:48.531Z,99763.17
2022-11-10T11:40:48.727Z,99766.08
2022-11-10T11:46:14.790Z,99761.73
2022-11-10T11:51:54.483Z,99778.17
2022-11-10T11:57:39.855Z,99789.75
2022-11-10T12:03:36.606Z,99787.41
2022-11-10T12:09:06.760Z,99792.55
2022-11-10T12:14:49.122Z,99795.29
2022-11-10T12:20:40.448Z,99798.26
2022-11-10T12:26:29.883Z,99809.44
2022-11-10T12:32:06.924Z,99809.42
2022-11-10T12:37:37.916Z,99814.04
2022-11-10T12:43:06.549Z,99812.95
2022-11-10T12:48:39.561Z,99822.42
2022-11-10T12:54:01.919Z,99826.16
2022-11-10T12:59:33.235Z,99824.31
2022-11-10T13:05:22.325Z,99827.35
2022-11-10T13:10:54.084Z,99831.36
2022-11-10T13:16:42.482Z,99834.20
2022-11-10T13:22:08.514Z,99842.95
2022-11-10T13:27:35.977Z,99845.80
2022-11-10T13:33:23.837Z,99855.64
2022-11-10T13:38:46.051Z,99868.52
2022-11-10T13:44:24.041Z,99872.95
2022-11-10T13:49:57.160Z,99877.40
2022-11-10T13:55:45.051Z,99880.45
2022-11-10T14:01:37.958Z,99882.41
2022-11-10T14:06:59.850Z,99887.73
2022-11-10T14:12:54.748Z,99887.73
2022-11-10T14:18:25.469Z,99902.00
2022-11-10T14:24:03.258Z,99906.39
2022-11-10T14:29:33.441Z,99920.13
2022-11-10T14:34:56.369Z,99926.55
2022-11-10T15:09:32.365Z,99909.13
2022-11-10T15:15:00.322Z,99929.56
2022-11-10T15:20:41.250Z,99956.64
2022-11-10T15:26:04.905Z,99974.09
2022-11-10T15:31:30.708Z,99987.10
2022-11-10T15:37:08.901Z,99995.89
2022-11-10T15:42:30.665Z,100002.86
2022-11-10T15:47:52.464Z,100008.65
2022-11-10T15:53:22.336Z,100012.39
2022-11-10T15:58:49.267Z,100019.66
2022-11-10T16:04:11.841Z,100030.29
2022-11-10T16:09:33.531Z,100039.30
2022-11-10T16:14:55.397Z,100044.40
2022-11-10T16:20:15.072Z,100037.64
2022-11-10T16:25:38.521Z,100055.65
2022-11-10T16:31:00.034Z,100060.58
2022-11-10T16:36:28.252Z,100062.93
2022-11-10T16:41:50.482Z,100070.06
2022-11-10T16:47:19.539Z,100076.10
2022-11-10T16:52:41.114Z,100083.13
2022-11-10T16:58:03.007Z,100092.87
2022-11-10T17:03:37.045Z,100108.13
2022-11-10T17:09:07.121Z,100121.02
2022-11-10T17:14:28.710Z,100129.73
2022-11-10T17:19:52.004Z,100143.05
2022-11-10T17:25:24.145Z,100146.89
2022-11-10T17:30:46.467Z,100159.74
2022-11-10T17:36:19.007Z,100165.80
2022-11-10T17:41:40.390Z,100173.92
2022-11-10T17:47:01.803Z,100173.83
2022-11-10T17:52:23.804Z,100183.63
2022-11-10T17:57:45.496Z,100189.73
2022-11-10T18:03:09.924Z,100197.39
2022-11-10T18:08:31.407Z,100204.41
2022-11-10T18:13:52.661Z,100205.35
2022-11-10T18:19:15.254Z,100209.22
2022-11-10T18:24:37.531Z,100204.15
2022-11-10T18:29:59.011Z,100207.38
2022-11-10T18:35:20.876Z,100213.36
2022-11-10T18:40:42.599Z,100214.73
2022-11-10T18:46:12.755Z,100219.15
2022-11-10T18:51:34.902Z,100222.31
2022-11-10T18:56:58.569Z,100229.11
2022-11-10T19:02:20.608Z,100237.27
2022-11-10T19:07:42.618Z,100236.81
2022-11-10T19:13:04.748Z,100234.67
2022-11-10T19:18:29.421Z,100238.36
2022-11-10T19:23:57.920Z,100243.99
2022-11-10T19:29:19.595Z,100243.25
2022-11-10T19:34:41.162Z,100251.05
2022-11-10T19:40:02.832Z,100255.24
2022-11-10T19:45:24.039Z,100264.54
2022-11-10T19:50:53.496Z,100269.14
2022-11-10T19:56:20.892Z,100288.41
2022-11-10T20:01:42.938Z,100290.33
2022-11-10T20:07:23.842Z,100296.13
2022-11-10T20:12:45.599Z,100297.13
2022-11-10T20:18:09.311Z,100308.38
2022-11-10T20:23:31.002Z,100314.58
2022-11-10T20:28:52.519Z,100316.27
2022-11-10T20:34:14.028Z,100324.58
2022-11-10T20:39:35.676Z,100333.30
2022-11-10T20:45:06.681Z,100345.19
2022-11-10T20:50:27.892Z,100351.39
2022-11-10T20:55:53.862Z,100355.45
2022-11-10T21:01:16.530Z,100340.42
2022-11-10T21:06:39.379Z,100338.96
2022-11-10T21:12:19.593Z,100339.71
2022-11-10T21:17:44.074Z,100339.33
2022-11-10T21:23:05.959Z,100347.58
2022-11-10T21:28:27.943Z,100352.52
2022-11-10T21:33:50.285Z,100356.30
2022-11-10T21:39:12.086Z,100358.84
2022-11-10T21:44:34.386Z,100360.46
2022-11-10T21:49:56.176Z,100363.98
2022-11-10T21:55:18.129Z,100362.44
2022-11-10T22:00:39.875Z,100365.41
2022-11-10T22:06:05.656Z,100367.49
2022-11-10T22:11:45.803Z,100364.42
2022-11-10T22:17:34.242Z,100372.98
2022-11-10T22:22:55.689Z,100376.52
2022-11-10T22:28:19.739Z,100375.23
2022-11-10T22:33:43.114Z,100381.16
2022-11-10T22:39:05.527Z,100380.80
2022-11-10T22:44:29.032Z,100381.85
2022-11-10T22:49:50.847Z,100387.42
2022-11-10T22:55:12.407Z,100389.88
2022-11-10T23:00:33.922Z,100396.33
2022-11-10T23:05:56.649Z,100398.98
2022-11-10T23:11:29.976Z,100403.23
2022-11-10T23:16:51.441Z,100404.25
2022-11-10T23:22:13.388Z,100401.82
2022-11-10T23:27:35.461Z,100401.35
2022-11-10T23:32:57.047Z,100400.46
2022-11-10T23:38:18.405Z,100400.13
2022-11-10T23:43:40.248Z,100406.20
2022-11-10T23:49:01.820Z,100414.56
2022-11-10T23:54:23.376Z,100419.45
2022-11-10T23:59:44.854Z,100422.52
